createdAt,value
2022-08-20T00:01:10.719Z,37.05
2022-08-20T00:03:41.041Z,34.50
2022-08-20T00:06:19.174Z,17.67
2022-08-20T00:08:46.890Z,33.50
2022-08-20T00:11:19.665Z,27.95
2022-08-20T00:13:53.549Z,23.05
2022-08-20T00:16:23.316Z,27.50
2022-08-20T00:18:50.883Z,33.08
2022-08-20T00:21:20.250Z,34.40
2022-08-20T00:23:50.038Z,24.88
2022-08-20T00:26:18.396Z,18.95
2022-08-20T00:28:46.126Z,26.38
2022-08-20T00:31:18.353Z,35.38
2022-08-20T00:33:45.978Z,37.55
2022-08-20T00:36:12.948Z,41.85
2022-08-20T00:38:43.098Z,39.67
2022-08-20T00:41:13.995Z,43.10
2022-08-20T00:43:44.718Z,31.38
2022-08-20T00:46:17.393Z,41.00
2022-08-20T00:48:50.456Z,45.05
2022-08-20T00:51:29.943Z,42.72
2022-08-20T00:54:09.863Z,41.42
2022-08-20T00:56:37.819Z,27.13
2022-08-20T00:59:11.802Z,33.75
2022-08-20T01:01:56.170Z,33.75
2022-08-20T01:04:33.773Z,39.05
2022-08-20T01:07:01.821Z,28.20
2022-08-20T01:09:33.482Z,28.52
2022-08-20T01:12:17.313Z,37.63
2022-08-20T01:14:46.807Z,30.42
2022-08-20T01:17:19.427Z,32.60
2022-08-20T01:19:54.453Z,40.42
2022-08-20T01:22:59.592Z,39.97
2022-08-20T01:25:39.356Z,29.10
2022-08-20T01:28:06.581Z,42.85
2022-08-20T01:30:34.730Z,35.17
2022-08-20T01:33:02.691Z,30.55
2022-08-20T01:35:29.979Z,28.80
2022-08-20T01:37:57.171Z,54.13
2022-08-20T01:40:39.848Z,38.22
2022-08-20T01:43:09.734Z,35.13
2022-08-20T01:45:37.127Z,34.80
2022-08-20T01:48:08.566Z,27.48
2022-08-20T01:50:42.214Z,34.42
2022-08-20T01:53:19.126Z,37.72
2022-08-20T01:55:46.197Z,31.23
2022-08-20T01:58:14.022Z,19.05
2022-08-20T02:00:41.074Z,33.97
2022-08-20T02:03:08.814Z,21.63
2022-08-20T02:05:36.232Z,20.23
2022-08-20T02:08:04.202Z,19.83
2022-08-20T02:10:31.892Z,18.38
2022-08-20T02:13:02.561Z,15.73
2022-08-20T02:15:34.485Z,16.95
2022-08-20T02:18:12.494Z,11.70
2022-08-20T02:20:40.611Z,16.00
2022-08-20T02:23:08.558Z,15.60
2022-08-20T02:25:37.504Z,23.00
2022-08-20T02:28:07.723Z,16.23
2022-08-20T02:30:39.326Z,21.73
2022-08-20T02:33:09.740Z,11.20
2022-08-20T02:35:37.666Z,30.45
2022-08-20T02:38:04.981Z,19.50
2022-08-20T02:40:33.135Z,37.85
2022-08-20T02:43:01.740Z,40.53
2022-08-20T02:45:30.404Z,52.03
2022-08-20T02:47:59.164Z,64.25
2022-08-20T02:50:27.157Z,81.57
2022-08-20T02:52:54.592Z,86.63
2022-08-20T02:55:27.399Z,98.00
2022-08-20T02:58:01.319Z,103.35
2022-08-20T03:00:38.543Z,100.28
2022-08-20T03:03:10.654Z,99.43
2022-08-20T03:05:40.218Z,94.85
2022-08-20T03:08:09.414Z,100.60
2022-08-20T03:10:37.970Z,101.18
2022-08-20T03:13:06.920Z,80.07
2022-08-20T03:15:34.568Z,86.22
2022-08-20T03:18:01.619Z,95.85
2022-08-20T03:20:29.182Z,107.15
2022-08-20T03:22:56.379Z,118.82
2022-08-20T03:25:24.303Z,116.90
2022-08-20T03:27:54.857Z,136.88
2022-08-20T03:30:23.028Z,112.18
2022-08-20T03:32:50.343Z,113.90
2022-08-20T03:35:20.228Z,112.25
2022-08-20T03:37:48.163Z,113.80
2022-08-20T03:40:23.194Z,111.80
2022-08-20T03:42:52.439Z,126.40
2022-08-20T03:45:20.908Z,116.75
2022-08-20T03:47:49.051Z,122.78
2022-08-20T03:50:23.113Z,126.15
2022-08-20T03:52:54.707Z,115.53
2022-08-20T03:55:23.819Z,113.53
2022-08-20T03:57:54.407Z,104.57
2022-08-20T04:00:27.091Z,109.03
2022-08-20T04:02:54.125Z,85.63
2022-08-20T04:05:28.432Z,99.75
2022-08-20T04:07:57.186Z,97.78
2022-08-20T04:12:57.341Z,106.28
2022-08-20T04:15:24.608Z,112.53
2022-08-20T04:17:52.833Z,82.22
2022-08-20T04:20:24.027Z,84.50
2022-08-20T04:22:58.973Z,90.95
2022-08-20T04:25:29.765Z,91.28
2022-08-20T04:27:58.708Z,78.28
2022-08-20T04:30:26.692Z,82.03
2022-08-20T04:32:54.477Z,81.63
2022-08-20T04:35:24.608Z,95.22
2022-08-20T04:38:02.814Z,84.20
2022-08-20T04:40:48.774Z,82.72
2022-08-20T04:43:16.005Z,76.75
2022-08-20T04:45:43.982Z,66.80
2022-08-20T04:48:15.011Z,60.53
2022-08-20T04:50:45.163Z,60.35
2022-08-20T04:53:14.125Z,53.80
2022-08-20T04:55:43.106Z,64.00
2022-08-20T04:58:27.388Z,63.05
2022-08-20T05:00:57.186Z,50.63
2022-08-20T05:03:29.001Z,38.20
2022-08-20T05:05:57.075Z,39.47
2022-08-20T05:08:25.783Z,40.92
2022-08-20T05:11:06.887Z,39.72
2022-08-20T05:13:44.256Z,39.67
2022-08-20T05:16:11.221Z,38.63
2022-08-20T05:18:38.155Z,33.80
2022-08-20T05:21:08.036Z,29.65
2022-08-20T05:23:37.391Z,31.15
2022-08-20T05:26:09.318Z,17.75
2022-08-20T05:28:51.340Z,18.63
2022-08-20T05:31:31.321Z,17.33
2022-08-20T05:34:10.321Z,22.00
2022-08-20T05:36:49.296Z,25.27
2022-08-20T05:39:21.160Z,22.85
2022-08-20T05:41:50.906Z,25.70
2022-08-20T05:44:18.737Z,16.60
2022-08-20T05:46:46.976Z,18.88
2022-08-20T05:49:22.423Z,21.75
2022-08-20T05:51:51.559Z,13.82
2022-08-20T05:54:18.579Z,12.93
2022-08-20T05:56:45.492Z,14.98
2022-08-20T05:59:14.153Z,12.73
2022-08-20T06:01:42.180Z,14.20
2022-08-20T06:04:26.990Z,13.85
2022-08-20T06:09:31.481Z,9.50
2022-08-20T06:12:06.181Z,15.05
2022-08-20T06:14:33.684Z,9.57
2022-08-20T06:17:06.191Z,8.80
2022-08-20T06:19:35.630Z,11.65
2022-08-20T06:22:17.634Z,11.68
2022-08-20T06:24:47.383Z,9.20
2022-08-20T06:27:16.472Z,17.80
2022-08-20T06:29:43.949Z,13.95
2022-08-20T06:32:11.326Z,12.60
2022-08-20T06:34:38.282Z,14.35
2022-08-20T06:37:21.831Z,9.15
2022-08-20T06:39:49.325Z,15.25
2022-08-20T06:42:20.844Z,5.35
2022-08-20T06:44:50.967Z,15.27
2022-08-20T06:47:20.297Z,10.27
2022-08-20T06:49:48.747Z,10.75
2022-08-20T06:52:17.311Z,11.48
2022-08-20T06:54:45.697Z,6.43
2022-08-20T06:57:13.007Z,7.45
2022-08-20T06:59:40.155Z,7.65
2022-08-20T07:02:07.063Z,9.88
2022-08-20T07:04:34.103Z,3.72
2022-08-20T07:07:01.234Z,14.32
2022-08-20T07:09:28.430Z,18.15
2022-08-20T07:11:56.737Z,11.70
2022-08-20T07:14:23.724Z,6.88
2022-08-20T07:16:50.722Z,17.13
2022-08-20T07:19:17.892Z,9.52
2022-08-20T07:21:44.828Z,5.43
2022-08-20T07:24:12.919Z,16.48
2022-08-20T07:26:40.373Z,8.50
2022-08-20T07:29:07.637Z,8.18
2022-08-20T07:31:53.293Z,11.40
2022-08-20T07:34:20.313Z,7.78
2022-08-20T07:36:48.950Z,6.20
2022-08-20T07:39:15.945Z,5.85
2022-08-20T07:41:47.484Z,8.20
2022-08-20T07:44:31.052Z,8.20
2022-08-20T07:47:01.457Z,22.33
2022-08-20T07:49:30.122Z,9.57
2022-08-20T07:51:57.254Z,4.65
2022-08-20T07:54:24.410Z,9.82
2022-08-20T07:56:51.395Z,7.72
2022-08-20T07:59:18.426Z,14.35
2022-08-20T08:01:45.418Z,6.43
2022-08-20T08:04:12.435Z,7.90
2022-08-20T08:06:40.712Z,3.42
2022-08-20T08:09:11.793Z,10.85
2022-08-20T08:11:46.479Z,8.23
2022-08-20T08:14:15.833Z,11.10
2022-08-20T08:16:45.839Z,5.13
2022-08-20T08:19:16.490Z,17.85
2022-08-20T08:21:44.498Z,6.32
2022-08-20T08:24:14.358Z,8.23
2022-08-20T08:26:44.312Z,11.55
2022-08-20T08:29:12.218Z,4.85
2022-08-20T08:31:41.091Z,7.07
2022-08-20T08:34:08.698Z,9.40
2022-08-20T08:36:35.747Z,6.25
2022-08-20T08:39:02.754Z,5.45
2022-08-20T08:41:35.873Z,10.55
2022-08-20T08:44:11.097Z,11.37
2022-08-20T08:46:45.335Z,7.68
2022-08-20T08:49:16.467Z,7.03
2022-08-20T08:51:49.281Z,4.13
2022-08-20T08:54:22.161Z,14.32
2022-08-20T08:56:50.525Z,9.77
2022-08-20T08:59:19.411Z,8.23
2022-08-20T09:01:59.507Z,10.90
2022-08-20T09:04:34.448Z,9.02
2022-08-20T09:07:04.549Z,10.15
2022-08-20T09:09:38.009Z,5.85
2022-08-20T09:12:15.510Z,5.75
2022-08-20T09:14:42.427Z,8.02
2022-08-20T09:17:09.438Z,10.13
2022-08-20T09:19:36.449Z,9.18
2022-08-20T09:22:11.965Z,11.07
2022-08-20T09:24:39.777Z,18.90
2022-08-20T09:27:07.083Z,6.97
2022-08-20T09:29:34.426Z,7.32
2022-08-20T09:32:17.515Z,9.82
2022-08-20T09:34:52.616Z,5.55
2022-08-20T09:37:20.177Z,8.63
2022-08-20T09:39:48.188Z,10.82
2022-08-20T09:42:24.359Z,12.60
2022-08-20T09:44:51.436Z,16.85
2022-08-20T09:47:18.712Z,14.52
2022-08-20T09:49:46.265Z,8.18
2022-08-20T09:52:32.236Z,11.40
2022-08-20T09:55:06.988Z,13.25
2022-08-20T09:57:35.441Z,14.38
2022-08-20T10:00:16.599Z,7.57
2022-08-20T10:02:43.915Z,10.50
2022-08-20T10:05:12.297Z,8.57
2022-08-20T10:07:40.830Z,6.47
2022-08-20T10:10:10.396Z,10.50
2022-08-20T10:12:37.551Z,10.52
2022-08-20T10:15:05.307Z,11.05
2022-08-20T10:17:32.192Z,8.63
2022-08-20T10:19:59.158Z,9.98
2022-08-20T10:22:27.460Z,13.85
2022-08-20T10:24:54.499Z,9.43
2022-08-20T10:27:21.445Z,7.15
2022-08-20T10:29:48.458Z,12.73
2022-08-20T10:32:17.355Z,12.75
2022-08-20T10:34:46.443Z,14.70
2022-08-20T10:37:19.619Z,7.85
2022-08-20T10:39:46.985Z,8.17
2022-08-20T10:42:14.142Z,8.93
2022-08-20T10:44:41.122Z,6.63
2022-08-20T10:47:31.578Z,6.00
2022-08-20T10:50:01.152Z,5.18
2022-08-20T10:52:28.582Z,7.80
2022-08-20T10:54:55.693Z,10.27
2022-08-20T10:57:26.273Z,7.60
2022-08-20T10:59:56.233Z,8.45
2022-08-20T11:02:24.170Z,7.35
2022-08-20T11:04:51.795Z,5.93
2022-08-20T11:07:50.031Z,5.22
2022-08-20T11:10:14.001Z,11.15
2022-08-20T11:12:42.023Z,7.47
2022-08-20T11:15:12.551Z,7.43
2022-08-20T11:17:41.876Z,12.23
2022-08-20T11:20:11.799Z,15.52
2022-08-20T11:22:38.842Z,12.60
2022-08-20T11:25:07.255Z,6.78
2022-08-20T11:27:37.063Z,16.42
2022-08-20T11:30:06.674Z,13.95
2022-08-20T11:32:33.635Z,7.80
2022-08-20T11:35:00.544Z,13.73
2022-08-20T11:37:27.913Z,2.78
2022-08-20T11:39:54.947Z,12.30
2022-08-20T11:42:22.033Z,9.52
2022-08-20T11:44:48.963Z,16.67
2022-08-20T11:47:27.440Z,6.93
2022-08-20T11:50:04.025Z,6.35
2022-08-20T11:52:31.334Z,10.45
2022-08-20T11:54:59.417Z,9.85
2022-08-20T11:57:31.928Z,10.43
2022-08-20T12:00:00.727Z,9.68
2022-08-20T12:02:28.512Z,12.27
2022-08-20T12:04:56.869Z,8.00
2022-08-20T12:07:25.975Z,12.95
2022-08-20T12:09:53.303Z,6.47
2022-08-20T12:12:23.562Z,5.57
2022-08-20T12:14:55.409Z,16.20
2022-08-20T12:17:26.899Z,14.75
2022-08-20T12:19:55.669Z,9.43
2022-08-20T12:22:25.234Z,9.63
2022-08-20T12:24:54.218Z,6.75
2022-08-20T12:27:24.895Z,13.38
2022-08-20T12:29:54.245Z,5.72
2022-08-20T12:32:22.369Z,11.65
2022-08-20T12:34:49.829Z,14.85
2022-08-20T12:37:20.192Z,12.82
2022-08-20T12:39:50.227Z,5.68
2022-08-20T12:42:17.625Z,8.88
2022-08-20T12:44:44.873Z,6.05
2022-08-20T12:47:28.192Z,10.27
2022-08-20T12:49:58.106Z,15.95
2022-08-20T12:52:25.852Z,3.22
2022-08-20T12:54:53.907Z,6.97
2022-08-20T12:57:30.974Z,8.52
2022-08-20T13:00:11.645Z,8.48
2022-08-20T13:02:41.262Z,7.57
2022-08-20T13:05:10.469Z,6.53
2022-08-20T13:07:38.858Z,7.38
2022-08-20T13:10:07.828Z,6.13
2022-08-20T13:12:35.046Z,7.60
2022-08-20T13:15:02.209Z,12.02
2022-08-20T13:17:38.839Z,8.50
2022-08-20T13:20:14.100Z,5.20
2022-08-20T13:22:41.643Z,6.10
2022-08-20T13:25:09.957Z,6.00
2022-08-20T13:27:38.544Z,10.02
2022-08-20T13:30:08.368Z,7.40
2022-08-20T13:32:35.429Z,6.57
2022-08-20T13:35:02.580Z,9.23
2022-08-20T13:37:30.790Z,6.15
2022-08-20T13:39:59.691Z,6.10
2022-08-20T13:42:27.837Z,4.53
2022-08-20T13:44:55.058Z,9.70
2022-08-20T13:47:34.366Z,9.25
2022-08-20T13:50:09.883Z,9.35
2022-08-20T13:52:37.731Z,26.98
2022-08-20T13:55:07.099Z,6.78
2022-08-20T13:57:34.944Z,11.30
2022-08-20T14:00:03.265Z,4.10
2022-08-20T14:02:31.186Z,4.32
2022-08-20T14:04:58.225Z,8.60
2022-08-20T14:07:32.220Z,7.00
2022-08-20T14:10:13.558Z,8.48
2022-08-20T14:12:41.404Z,7.57
2022-08-20T14:15:09.298Z,10.38
2022-08-20T14:17:41.559Z,8.15
2022-08-20T14:20:13.018Z,7.88
2022-08-20T14:22:41.864Z,5.68
2022-08-20T14:25:11.245Z,7.75
2022-08-20T14:27:39.121Z,8.02
2022-08-20T14:30:11.823Z,7.43
2022-08-20T14:32:39.003Z,7.28
2022-08-20T14:35:06.631Z,8.00
2022-08-20T14:37:38.212Z,6.05
2022-08-20T14:40:09.215Z,7.45
2022-08-20T14:42:36.815Z,10.20
2022-08-20T14:45:06.578Z,10.88
2022-08-20T14:47:42.350Z,9.18
2022-08-20T14:50:23.517Z,10.70
2022-08-20T14:52:50.554Z,12.43
2022-08-20T14:55:20.992Z,19.25
2022-08-20T14:57:48.825Z,6.30
2022-08-20T15:00:19.645Z,4.95
2022-08-20T15:02:47.230Z,9.95
2022-08-20T15:05:15.775Z,5.75
2022-08-20T15:07:48.317Z,7.72
2022-08-20T15:10:30.669Z,8.88
2022-08-20T15:12:59.028Z,5.10
2022-08-20T15:15:26.523Z,7.43
2022-08-20T15:17:57.022Z,6.97
2022-08-20T15:20:27.690Z,6.07
2022-08-20T15:22:55.312Z,7.38
2022-08-20T15:25:25.199Z,10.30
2022-08-20T15:27:58.366Z,5.75
2022-08-20T15:30:30.959Z,5.20
2022-08-20T15:32:58.266Z,15.48
2022-08-20T15:35:27.236Z,7.53
2022-08-20T15:37:57.892Z,8.93
2022-08-20T15:40:28.895Z,10.63
2022-08-20T15:43:00.593Z,12.50
2022-08-20T15:45:28.224Z,9.70
2022-08-20T15:48:17.239Z,7.28
2022-08-20T15:51:28.965Z,8.45
2022-08-20T15:54:01.046Z,11.23
2022-08-20T15:56:52.869Z,7.63
2022-08-20T15:59:35.846Z,5.63
2022-08-20T16:02:37.200Z,9.38
2022-08-20T16:05:06.809Z,5.82
2022-08-20T16:07:33.943Z,10.50
2022-08-20T16:10:27.081Z,9.00
2022-08-20T16:12:58.424Z,6.63
2022-08-20T16:15:30.376Z,13.80
2022-08-20T16:18:00.088Z,12.60
2022-08-20T16:20:35.593Z,23.00
2022-08-20T16:23:04.438Z,5.82
2022-08-20T16:25:58.908Z,8.55
2022-08-20T16:28:28.979Z,6.43
2022-08-20T16:31:06.599Z,8.02
2022-08-20T16:33:38.828Z,10.07
2022-08-20T16:36:15.526Z,6.40
2022-08-20T16:39:05.110Z,15.07
2022-08-20T16:41:38.454Z,11.95
2022-08-20T16:44:15.311Z,8.52
2022-08-20T16:46:55.118Z,14.18
2022-08-20T16:49:25.835Z,9.35
2022-08-20T16:51:53.760Z,12.98
2022-08-20T16:54:30.071Z,8.68
2022-08-20T16:57:04.182Z,7.00
2022-08-20T16:59:32.150Z,7.57
2022-08-20T17:02:10.528Z,9.55
2022-08-20T17:04:58.887Z,11.05
2022-08-20T17:07:43.542Z,10.68
2022-08-20T17:10:21.360Z,8.98
2022-08-20T17:13:03.095Z,22.63
2022-08-20T17:15:33.871Z,9.95
2022-08-20T17:18:30.925Z,10.25
2022-08-20T17:21:41.482Z,8.85
2022-08-20T17:24:25.458Z,7.18
2022-08-20T17:26:59.858Z,14.05
2022-08-20T17:29:30.797Z,12.13
2022-08-20T17:32:25.899Z,7.25
2022-08-20T17:34:55.934Z,10.65
2022-08-20T17:37:33.468Z,11.35
2022-08-20T17:40:28.730Z,7.70
2022-08-20T17:43:03.809Z,10.75
2022-08-20T17:45:45.806Z,9.10
2022-08-20T17:48:17.143Z,11.27
2022-08-20T17:50:44.554Z,7.60
2022-08-20T17:53:22.565Z,11.00
2022-08-20T17:56:13.212Z,14.30
2022-08-20T17:58:55.943Z,15.57
2022-08-20T18:03:53.762Z,7.97
2022-08-20T18:06:35.142Z,12.27
2022-08-20T18:09:09.458Z,12.30
2022-08-20T18:12:03.354Z,10.68
2022-08-20T18:14:38.946Z,13.32
2022-08-20T18:17:34.788Z,10.30
2022-08-20T18:20:38.966Z,14.82
2022-08-20T18:23:10.485Z,16.23
2022-08-20T18:25:53.926Z,11.77
2022-08-20T18:28:27.845Z,8.18
2022-08-20T18:31:00.704Z,17.40
2022-08-20T18:33:29.969Z,15.77
2022-08-20T18:36:14.427Z,11.43
2022-08-20T18:38:42.696Z,15.18
2022-08-20T18:41:26.328Z,12.23
2022-08-20T18:44:10.156Z,14.40
2022-08-20T18:46:53.665Z,16.40
2022-08-20T18:49:27.844Z,18.92
2022-08-20T18:51:55.050Z,18.45
2022-08-20T18:54:30.605Z,10.65
2022-08-20T18:57:25.038Z,11.95
2022-08-20T19:00:49.777Z,9.15
2022-08-20T19:03:45.593Z,16.38
2022-08-20T19:06:54.307Z,15.63
2022-08-20T19:09:43.441Z,12.40
2022-08-20T19:12:28.776Z,11.85
2022-08-20T19:15:04.151Z,15.50
2022-08-20T19:17:44.045Z,19.50
2022-08-20T19:20:16.441Z,13.65
2022-08-20T19:22:45.531Z,9.98
2022-08-20T19:25:35.434Z,11.73
2022-08-20T19:28:35.309Z,9.90
2022-08-20T19:31:25.832Z,10.02
2022-08-20T19:34:19.968Z,13.68
2022-08-20T19:37:35.058Z,23.92
2022-08-20T19:40:08.677Z,14.23
2022-08-20T19:42:43.257Z,13.10
2022-08-20T19:45:24.091Z,18.65
2022-08-20T19:48:09.638Z,13.68
2022-08-20T19:50:51.154Z,14.63
2022-08-20T19:53:33.451Z,12.63
2022-08-20T19:56:14.766Z,12.25
2022-08-20T19:58:44.474Z,8.93
2022-08-20T20:01:20.426Z,13.68
2022-08-20T20:04:00.302Z,11.05
2022-08-20T20:06:28.756Z,12.73
2022-08-20T20:09:06.290Z,11.93
2022-08-20T20:11:42.249Z,11.43
2022-08-20T20:14:13.316Z,13.27
2022-08-20T20:16:41.563Z,19.48
2022-08-20T20:19:26.351Z,10.90
2022-08-20T20:22:29.138Z,14.10
2022-08-20T20:25:06.164Z,11.68
2022-08-20T20:27:36.615Z,18.23
2022-08-20T20:30:11.808Z,16.73
2022-08-20T20:32:44.159Z,11.73
2022-08-20T20:35:11.356Z,9.57
2022-08-20T20:37:50.479Z,13.60
2022-08-20T20:40:24.329Z,12.63
2022-08-20T20:43:08.285Z,9.75
2022-08-20T20:45:41.844Z,12.65
2022-08-20T20:48:33.852Z,10.63
2022-08-20T20:51:11.931Z,14.63
2022-08-20T20:53:53.033Z,16.17
2022-08-20T20:56:35.296Z,11.95
2022-08-20T20:59:06.885Z,16.08
2022-08-20T21:01:46.220Z,11.35
2022-08-20T21:04:18.294Z,16.30
2022-08-20T21:06:45.359Z,14.02
2022-08-20T21:09:12.397Z,12.63
2022-08-20T21:11:39.289Z,13.25
2022-08-20T21:14:06.198Z,14.32
2022-08-20T21:16:33.194Z,17.67
2022-08-20T21:19:00.550Z,21.65
2022-08-20T21:21:27.523Z,14.82
2022-08-20T21:23:54.539Z,16.13
2022-08-20T21:26:21.508Z,18.67
2022-08-20T21:28:48.442Z,9.07
2022-08-20T21:31:15.349Z,12.10
2022-08-20T21:33:42.279Z,8.43
2022-08-20T21:36:09.554Z,18.52
2022-08-20T21:38:37.264Z,14.38
2022-08-20T21:41:04.363Z,12.43
2022-08-20T21:43:32.827Z,8.52
2022-08-20T21:46:02.360Z,9.43
2022-08-20T21:48:30.195Z,12.00
2022-08-20T21:50:57.117Z,10.77
2022-08-20T21:53:24.053Z,13.95
2022-08-20T21:55:51.232Z,10.23
2022-08-20T21:58:19.952Z,11.07
2022-08-20T22:01:02.797Z,10.90
2022-08-20T22:03:36.877Z,10.13
2022-08-20T22:06:07.969Z,14.07
2022-08-20T22:08:35.336Z,10.95
2022-08-20T22:11:02.955Z,10.60
2022-08-20T22:13:32.964Z,7.78
2022-08-20T22:16:01.499Z,14.68
2022-08-20T22:18:28.578Z,9.80
2022-08-20T22:20:56.032Z,12.10
2022-08-20T22:23:23.425Z,12.55
2022-08-20T22:25:50.717Z,13.20
2022-08-20T22:28:18.577Z,12.93
2022-08-20T22:30:46.006Z,12.45
2022-08-20T22:33:17.383Z,10.73
2022-08-20T22:35:50.813Z,33.22
2022-08-20T22:38:18.393Z,13.40
2022-08-20T22:40:45.821Z,16.27
2022-08-20T22:43:14.092Z,9.93
2022-08-20T22:45:43.804Z,10.90
2022-08-20T22:48:13.932Z,13.13
2022-08-20T22:50:41.042Z,12.35
2022-08-20T22:53:08.750Z,14.70
2022-08-20T22:55:37.092Z,13.77
2022-08-20T22:58:05.187Z,22.20
2022-08-20T23:00:32.975Z,15.35
2022-08-20T23:03:01.416Z,17.65
2022-08-20T23:05:30.801Z,14.82
2022-08-20T23:07:59.479Z,15.02
2022-08-20T23:10:28.051Z,17.58
2022-08-20T23:12:55.364Z,19.35
2022-08-20T23:15:22.427Z,21.17
2022-08-20T23:17:50.177Z,15.48
2022-08-20T23:20:18.746Z,14.20
2022-08-20T23:22:45.889Z,12.70
2022-08-20T23:25:14.199Z,15.85
2022-08-20T23:27:44.989Z,11.90
2022-08-20T23:30:12.585Z,15.38
2022-08-20T23:32:39.800Z,12.10
2022-08-20T23:35:07.375Z,14.35
2022-08-20T23:37:47.827Z,21.40
2022-08-20T23:40:16.701Z,14.30
2022-08-20T23:42:44.263Z,15.90
2022-08-20T23:45:11.722Z,19.83
2022-08-20T23:47:38.882Z,16.67
2022-08-20T23:50:07.985Z,16.45
2022-08-20T23:52:34.980Z,14.95
2022-08-20T23:55:01.989Z,20.15
2022-08-20T23:57:28.989Z,18.65
2022-08-20T23:59:56.007Z,13.48
